createdAt,value
2018-07-24T00:00:47.208Z,22.50
2018-07-24T00:03:15.228Z,22.43
2018-07-24T00:05:43.285Z,22.37
2018-07-24T00:08:11.288Z,22.36
2018-07-24T00:10:39.279Z,22.28
2018-07-24T00:13:07.269Z,22.23
2018-07-24T00:15:35.272Z,22.21
2018-07-24T00:18:03.266Z,22.18
2018-07-24T00:20:31.235Z,22.17
2018-07-24T00:22:59.236Z,22.13
2018-07-24T00:25:27.239Z,22.08
2018-07-24T00:27:55.385Z,21.99
2018-07-24T00:30:23.398Z,21.98
2018-07-24T00:32:51.392Z,21.96
2018-07-24T00:35:19.411Z,21.90
2018-07-24T00:37:47.552Z,21.87
2018-07-24T00:40:15.624Z,21.88
2018-07-24T00:42:43.652Z,21.61
2018-07-24T00:45:11.665Z,21.60
2018-07-24T00:47:39.728Z,21.52
2018-07-24T00:50:07.683Z,21.57
2018-07-24T00:52:35.681Z,21.60
2018-07-24T00:55:03.687Z,21.60
2018-07-24T00:57:31.684Z,21.58
2018-07-24T00:59:59.763Z,21.56
2018-07-24T01:02:27.742Z,21.57
2018-07-24T01:04:55.740Z,21.51
2018-07-24T01:07:23.716Z,21.42
2018-07-24T01:09:51.711Z,21.35
2018-07-24T01:12:20.186Z,21.37
2018-07-24T01:14:48.172Z,21.32
2018-07-24T01:17:16.158Z,21.20
2018-07-24T01:19:44.152Z,21.15
2018-07-24T01:22:12.137Z,21.14
2018-07-24T01:24:42.252Z,21.16
2018-07-24T01:27:10.278Z,21.16
2018-07-24T01:29:38.264Z,21.07
2018-07-24T01:32:06.532Z,20.84
2018-07-24T01:34:34.537Z,20.73
2018-07-24T01:37:02.557Z,20.85
2018-07-24T01:39:30.574Z,20.89
2018-07-24T01:41:58.545Z,20.93
2018-07-24T01:44:26.540Z,20.95
2018-07-24T01:46:54.561Z,20.93
2018-07-24T01:49:22.572Z,20.92
2018-07-24T01:51:50.565Z,20.68
2018-07-24T01:54:18.563Z,20.45
2018-07-24T01:56:46.536Z,20.10
2018-07-24T01:59:14.520Z,19.99
2018-07-24T02:01:43.216Z,20.22
2018-07-24T02:04:11.292Z,20.33
2018-07-24T02:06:39.303Z,20.45
2018-07-24T02:09:08.352Z,20.50
2018-07-24T02:11:36.401Z,20.55
2018-07-24T02:14:04.385Z,20.55
2018-07-24T02:16:32.404Z,20.51
2018-07-24T02:19:00.637Z,20.49
2018-07-24T02:21:28.664Z,20.48
2018-07-24T02:23:56.660Z,20.47
2018-07-24T02:26:24.656Z,20.32
2018-07-24T02:28:52.736Z,20.25
2018-07-24T02:31:20.708Z,20.35
2018-07-24T02:33:48.721Z,20.35
2018-07-24T02:36:16.722Z,20.27
2018-07-24T02:38:44.737Z,20.24
2018-07-24T02:41:12.730Z,20.23
2018-07-24T02:43:40.720Z,20.10
2018-07-24T02:46:08.750Z,20.16
2018-07-24T02:48:36.747Z,20.21
2018-07-24T02:51:04.781Z,20.11
2018-07-24T02:53:32.805Z,20.15
2018-07-24T02:56:00.788Z,20.20
2018-07-24T02:58:28.772Z,20.21
2018-07-24T03:00:56.761Z,20.21
2018-07-24T03:03:24.773Z,20.24
2018-07-24T03:05:52.772Z,20.25
2018-07-24T03:08:20.990Z,20.26
2018-07-24T03:10:48.968Z,20.27
2018-07-24T03:13:16.965Z,20.25
2018-07-24T03:15:44.949Z,20.24
2018-07-24T03:18:12.960Z,20.25
2018-07-24T03:20:40.994Z,20.21
2018-07-24T03:23:09.052Z,20.16
2018-07-24T03:25:37.045Z,20.16
2018-07-24T03:28:05.012Z,20.15
2018-07-24T03:30:32.988Z,20.18
2018-07-24T03:33:02.061Z,20.20
2018-07-24T03:35:30.122Z,20.21
2018-07-24T03:37:58.101Z,20.19
2018-07-24T03:40:26.111Z,20.18
2018-07-24T03:42:54.173Z,20.16
2018-07-24T03:45:22.204Z,20.14
2018-07-24T03:47:50.204Z,20.12
2018-07-24T03:50:18.200Z,20.13
2018-07-24T03:52:46.193Z,19.97
2018-07-24T03:55:14.229Z,19.90
2018-07-24T03:57:43.264Z,20.02
2018-07-24T04:00:11.413Z,20.08
2018-07-24T04:02:39.537Z,20.09
2018-07-24T04:05:07.504Z,20.15
2018-07-24T04:07:35.496Z,20.20
2018-07-24T04:10:03.488Z,20.26
2018-07-24T04:12:31.482Z,20.24
2018-07-24T04:14:59.597Z,20.29
2018-07-24T04:17:27.604Z,20.36
2018-07-24T04:19:55.592Z,20.43
2018-07-24T04:22:23.728Z,20.47
2018-07-24T04:24:51.705Z,20.43
2018-07-24T04:27:19.689Z,20.34
2018-07-24T04:29:47.682Z,20.36
2018-07-24T04:32:15.674Z,20.43
2018-07-24T04:34:43.724Z,20.42
2018-07-24T04:37:11.732Z,20.53
2018-07-24T04:39:39.737Z,20.44
2018-07-24T04:42:07.828Z,20.44
2018-07-24T04:44:35.838Z,20.54
2018-07-24T04:47:03.861Z,20.63
2018-07-24T04:49:31.896Z,20.73
2018-07-24T04:51:59.888Z,20.99
2018-07-24T04:54:27.897Z,21.13
2018-07-24T04:56:55.923Z,21.16
2018-07-24T04:59:23.912Z,21.13
2018-07-24T05:01:51.893Z,21.26
2018-07-24T05:04:19.884Z,21.44
2018-07-24T05:06:47.949Z,21.55
2018-07-24T05:09:15.925Z,21.63
2018-07-24T05:11:44.551Z,21.72
2018-07-24T05:14:12.727Z,21.83
2018-07-24T05:16:41.537Z,21.96
2018-07-24T05:19:09.500Z,22.06
2018-07-24T05:21:37.982Z,22.12
2018-07-24T05:24:06.507Z,22.27
2018-07-24T05:26:34.532Z,22.33
2018-07-24T05:29:02.532Z,22.55
2018-07-24T05:31:30.547Z,23.38
2018-07-24T05:33:58.557Z,25.30
2018-07-24T05:36:26.576Z,27.62
2018-07-24T05:38:54.581Z,29.95
2018-07-24T05:41:22.626Z,31.88
2018-07-24T05:43:50.653Z,33.55
2018-07-24T05:46:18.677Z,34.85
2018-07-24T05:48:46.730Z,35.94
2018-07-24T05:51:14.684Z,37.06
2018-07-24T05:53:42.668Z,37.99
2018-07-24T05:56:10.712Z,38.90
2018-07-24T05:58:38.736Z,39.30
2018-07-24T06:01:06.748Z,40.08
2018-07-24T06:03:35.726Z,40.31
2018-07-24T06:06:03.709Z,40.64
2018-07-24T06:08:31.684Z,41.22
2018-07-24T06:10:59.666Z,41.85
2018-07-24T06:13:27.679Z,41.94
2018-07-24T06:15:55.660Z,42.65
2018-07-24T06:18:23.708Z,42.85
2018-07-24T06:20:51.722Z,42.87
2018-07-24T06:23:20.287Z,42.92
2018-07-24T06:25:48.268Z,42.23
2018-07-24T06:28:16.265Z,41.82
2018-07-24T06:30:44.266Z,41.19
2018-07-24T06:33:12.246Z,40.02
2018-07-24T06:35:40.229Z,40.22
2018-07-24T06:38:08.214Z,40.97
2018-07-24T06:40:36.182Z,41.12
2018-07-24T06:43:05.225Z,41.29
2018-07-24T06:45:33.276Z,41.24
2018-07-24T06:48:01.262Z,41.06
2018-07-24T06:50:29.232Z,41.03
2018-07-24T06:52:57.221Z,41.29
2018-07-24T06:55:25.396Z,41.35
2018-07-24T06:57:53.600Z,41.06
2018-07-24T07:00:21.585Z,40.42
2018-07-24T07:02:49.560Z,40.75
2018-07-24T07:05:17.556Z,41.14
2018-07-24T07:07:45.539Z,41.39
2018-07-24T07:10:13.548Z,41.70
2018-07-24T07:12:41.528Z,41.60
2018-07-24T07:15:09.774Z,41.21
2018-07-24T07:17:37.909Z,41.44
2018-07-24T07:20:05.890Z,41.73
2018-07-24T07:22:33.909Z,41.85
2018-07-24T07:25:02.074Z,41.83
2018-07-24T07:27:30.044Z,42.74
2018-07-24T07:29:58.015Z,43.11
2018-07-24T07:32:26.091Z,43.08
2018-07-24T07:34:54.021Z,42.64
2018-07-24T07:37:22.032Z,43.06
2018-07-24T07:39:50.072Z,42.50
2018-07-24T07:42:18.061Z,42.91
2018-07-24T07:44:46.045Z,43.00
2018-07-24T07:47:14.012Z,42.97
2018-07-24T07:49:42.000Z,42.56
2018-07-24T07:52:10.000Z,42.87
2018-07-24T07:54:38.025Z,42.90
2018-07-24T07:57:05.992Z,42.43
2018-07-24T07:59:34.049Z,41.49
2018-07-24T08:02:02.028Z,41.73
2018-07-24T08:04:30.010Z,40.91
2018-07-24T08:06:58.061Z,40.40
2018-07-24T08:09:26.041Z,40.51
2018-07-24T08:11:54.016Z,40.99
2018-07-24T08:14:22.111Z,40.78
2018-07-24T08:16:50.073Z,40.49
2018-07-24T08:19:18.070Z,40.64
2018-07-24T08:21:46.046Z,41.16
2018-07-24T08:24:14.137Z,40.83
2018-07-24T08:26:42.152Z,41.02
2018-07-24T08:29:10.169Z,41.14
2018-07-24T08:31:38.164Z,40.28
2018-07-24T08:34:06.546Z,39.95
2018-07-24T08:36:34.540Z,39.65
2018-07-24T08:39:02.540Z,39.28
2018-07-24T08:41:30.588Z,38.38
2018-07-24T08:43:58.610Z,38.40
2018-07-24T08:46:26.658Z,37.73
2018-07-24T08:48:54.660Z,37.48
2018-07-24T08:51:22.642Z,37.78
2018-07-24T08:53:50.969Z,36.98
2018-07-24T08:56:18.725Z,37.45
2018-07-24T08:58:46.803Z,37.81
2018-07-24T09:01:14.879Z,37.67
2018-07-24T09:03:42.927Z,37.61
2018-07-24T09:06:10.853Z,37.68
2018-07-24T09:08:38.869Z,36.91
2018-07-24T09:11:06.891Z,37.21
2018-07-24T09:13:34.868Z,37.64
2018-07-24T09:16:02.937Z,37.37
2018-07-24T09:18:30.945Z,36.88
2018-07-24T09:20:59.075Z,36.47
2018-07-24T09:23:27.032Z,36.32
2018-07-24T09:25:55.041Z,36.11
2018-07-24T09:28:23.036Z,35.97
2018-07-24T09:30:51.054Z,35.54
2018-07-24T09:33:19.096Z,35.67
2018-07-24T09:35:47.113Z,35.22
2018-07-24T09:38:15.136Z,35.58
2018-07-24T09:40:43.146Z,35.29
2018-07-24T09:43:11.123Z,35.10
2018-07-24T09:45:39.335Z,35.49
2018-07-24T09:48:07.320Z,35.18
2018-07-24T09:50:35.335Z,35.05
2018-07-24T09:53:04.116Z,34.65
2018-07-24T09:55:32.114Z,35.30
2018-07-24T09:58:00.084Z,35.65
2018-07-24T10:00:33.592Z,34.71
2018-07-24T10:03:01.701Z,34.67
2018-07-24T10:05:29.776Z,35.35
2018-07-24T10:07:57.685Z,35.93
2018-07-24T10:10:25.691Z,36.48
2018-07-24T10:12:53.775Z,36.90
2018-07-24T10:15:21.661Z,37.22
2018-07-24T10:17:49.663Z,37.43
2018-07-24T10:20:17.672Z,36.90
2018-07-24T10:22:45.685Z,36.92
2018-07-24T10:25:13.935Z,37.06
2018-07-24T10:27:42.057Z,37.36
2018-07-24T10:30:10.094Z,37.63
2018-07-24T10:32:38.216Z,37.57
2018-07-24T10:35:06.792Z,37.22
2018-07-24T10:37:34.903Z,37.11
2018-07-24T10:40:02.948Z,37.27
2018-07-24T10:42:30.927Z,37.33
2018-07-24T10:44:58.916Z,36.98
2018-07-24T10:47:26.896Z,37.33
2018-07-24T10:49:54.912Z,37.53
2018-07-24T10:52:22.902Z,36.97
2018-07-24T10:54:50.948Z,35.96
2018-07-24T10:57:18.933Z,35.98
2018-07-24T10:59:46.972Z,36.23
2018-07-24T11:02:15.000Z,36.30
2018-07-24T11:04:43.353Z,36.14
2018-07-24T11:07:11.344Z,36.17
2018-07-24T11:09:39.391Z,36.01
2018-07-24T11:12:07.473Z,36.01
2018-07-24T11:14:35.453Z,35.89
2018-07-24T11:17:03.465Z,35.81
2018-07-24T11:19:31.440Z,35.69
2018-07-24T11:21:59.460Z,35.46
2018-07-24T11:24:27.480Z,35.68
2018-07-24T11:26:55.529Z,35.55
2018-07-24T11:29:23.508Z,35.80
2018-07-24T11:31:51.606Z,35.80
2018-07-24T11:34:19.583Z,36.03
2018-07-24T11:36:47.580Z,36.36
2018-07-24T11:39:15.547Z,36.46
2018-07-24T11:41:43.636Z,36.59
2018-07-24T11:44:11.689Z,36.28
2018-07-24T11:46:40.631Z,36.45
2018-07-24T11:49:08.733Z,36.40
2018-07-24T11:51:37.860Z,36.56
2018-07-24T11:54:05.821Z,36.56
2018-07-24T11:56:33.873Z,36.76
2018-07-24T11:59:01.934Z,36.80
2018-07-24T12:01:29.904Z,36.89
2018-07-24T12:03:59.026Z,37.20
2018-07-24T12:06:27.044Z,37.52
2018-07-24T12:08:55.001Z,37.44
2018-07-24T12:11:22.984Z,37.11
2018-07-24T12:13:50.968Z,37.16
2018-07-24T12:16:19.041Z,37.07
2018-07-24T12:18:47.189Z,36.60
2018-07-24T12:21:15.452Z,37.06
2018-07-24T12:23:43.583Z,37.60
2018-07-24T12:26:11.654Z,37.69
2018-07-24T12:28:39.652Z,38.02
2018-07-24T12:31:07.706Z,37.80
2018-07-24T12:33:35.804Z,37.28
2018-07-24T12:36:03.972Z,37.14
2018-07-24T12:38:32.100Z,37.08
2018-07-24T12:41:00.198Z,36.56
2018-07-24T12:43:28.505Z,36.90
2018-07-24T12:45:56.457Z,36.93
2018-07-24T12:48:24.688Z,37.22
2018-07-24T12:50:52.817Z,37.46
2018-07-24T12:53:20.882Z,37.76
2018-07-24T12:55:49.012Z,37.74
2018-07-24T12:58:17.315Z,37.99
2018-07-24T13:00:45.529Z,38.18
2018-07-24T13:03:13.717Z,38.43
2018-07-24T13:05:41.702Z,38.26
2018-07-24T13:08:09.841Z,38.35
2018-07-24T13:10:37.881Z,38.46
2018-07-24T13:13:06.011Z,37.61
2018-07-24T13:15:34.010Z,36.85
2018-07-24T13:18:02.201Z,36.51
2018-07-24T13:20:30.185Z,36.60
2018-07-24T13:22:58.354Z,36.85
2018-07-24T13:25:26.586Z,37.12
2018-07-24T13:27:54.726Z,37.43
2018-07-24T13:30:22.799Z,37.43
2018-07-24T13:32:50.839Z,37.55
2018-07-24T13:35:18.808Z,37.82
2018-07-24T13:37:47.008Z,37.91
2018-07-24T13:40:15.327Z,38.27
2018-07-24T13:42:43.578Z,38.41
2018-07-24T13:45:12.818Z,38.52
2018-07-24T13:47:40.928Z,38.60
2018-07-24T13:50:09.117Z,38.66
2018-07-24T13:52:37.196Z,38.78
2018-07-24T13:55:05.617Z,38.83
2018-07-24T13:57:33.676Z,38.95
2018-07-24T14:00:01.880Z,38.79
2018-07-24T14:02:29.989Z,38.60
2018-07-24T14:04:58.012Z,38.38
2018-07-24T14:07:26.640Z,37.88
2018-07-24T14:09:55.051Z,37.39
2018-07-24T14:12:23.099Z,37.69
2018-07-24T14:14:51.165Z,37.73
2018-07-24T14:17:19.192Z,38.22
2018-07-24T14:19:47.204Z,38.34
2018-07-24T14:22:15.289Z,38.66
2018-07-24T14:24:43.365Z,38.92
2018-07-24T14:27:11.379Z,39.09
2018-07-24T14:29:39.616Z,38.98
2018-07-24T14:32:07.595Z,39.07
2018-07-24T14:34:35.564Z,39.22
2018-07-24T14:37:03.536Z,39.27
2018-07-24T14:39:31.517Z,39.17
2018-07-24T14:41:59.488Z,38.90
2018-07-24T14:44:27.540Z,38.70
2018-07-24T14:46:56.624Z,38.53
2018-07-24T14:49:24.600Z,38.50
2018-07-24T14:51:52.684Z,38.62
2018-07-24T14:54:20.860Z,39.01
2018-07-24T14:56:49.160Z,39.18
2018-07-24T14:59:17.186Z,39.03
2018-07-24T15:01:45.164Z,39.00
2018-07-24T15:04:13.328Z,39.07
2018-07-24T15:06:41.327Z,39.32
2018-07-24T15:09:11.056Z,39.16
2018-07-24T15:11:39.036Z,39.24
2018-07-24T15:14:07.042Z,39.23
2018-07-24T15:16:34.984Z,39.06
2018-07-24T15:19:03.021Z,39.05
2018-07-24T15:21:31.092Z,38.65
2018-07-24T15:49:54.280Z,38.46
2018-07-24T15:55:16.434Z,38.70
2018-07-24T15:57:44.526Z,38.65
2018-07-24T16:00:12.485Z,38.51
2018-07-24T16:02:42.552Z,38.46
2018-07-24T16:05:10.532Z,38.39
2018-07-24T16:07:38.526Z,38.60
2018-07-24T16:10:06.661Z,38.61
2018-07-24T16:12:34.736Z,38.95
2018-07-24T16:15:02.739Z,39.27
2018-07-24T16:17:30.738Z,39.24
2018-07-24T16:19:58.745Z,39.32
2018-07-24T16:22:26.744Z,38.90
2018-07-24T16:24:55.144Z,38.43
2018-07-24T16:27:24.185Z,38.31
2018-07-24T16:29:52.243Z,38.39
2018-07-24T16:32:20.300Z,38.28
2018-07-24T16:34:48.374Z,38.12
2018-07-24T16:37:16.421Z,37.93
2018-07-24T16:39:44.520Z,37.86
2018-07-24T16:42:12.620Z,37.95
2018-07-24T16:44:40.650Z,37.82
2018-07-24T16:47:08.752Z,37.58
2018-07-24T16:49:36.776Z,37.19
2018-07-24T16:52:04.760Z,37.32
2018-07-24T16:54:32.893Z,37.29
2018-07-24T16:57:00.921Z,37.32
2018-07-24T16:59:28.908Z,37.31
2018-07-24T17:01:56.965Z,37.11
2018-07-24T17:04:25.008Z,37.25
2018-07-24T17:06:54.057Z,36.93
2018-07-24T17:09:22.050Z,37.16
2018-07-24T17:11:50.056Z,37.01
2018-07-24T17:14:18.165Z,36.92
2018-07-24T17:16:46.141Z,37.27
2018-07-24T17:19:14.157Z,37.41
2018-07-24T17:21:42.262Z,37.62
2018-07-24T17:24:10.256Z,37.26
2018-07-24T17:26:38.380Z,37.16
2018-07-24T17:29:06.509Z,37.37
2018-07-24T17:31:34.508Z,37.60
2018-07-24T17:34:02.520Z,37.81
2018-07-24T17:36:30.613Z,37.77
2018-07-24T17:38:58.638Z,37.68
2018-07-24T17:41:26.631Z,37.53
2018-07-24T17:43:54.633Z,37.80
2018-07-24T17:46:22.637Z,37.89
2018-07-24T17:48:50.630Z,37.58
2018-07-24T17:51:18.630Z,37.37
2018-07-24T17:53:46.797Z,37.20
2018-07-24T17:56:14.812Z,36.88
2018-07-24T17:58:42.793Z,36.75
2018-07-24T18:01:11.032Z,36.49
2018-07-24T18:03:39.105Z,36.25
2018-07-24T18:06:07.242Z,36.04
2018-07-24T18:08:35.268Z,36.07
2018-07-24T18:11:03.454Z,35.92
2018-07-24T18:13:31.563Z,35.97
2018-07-24T18:15:59.568Z,35.99
2018-07-24T18:18:27.645Z,35.51
2018-07-24T18:20:55.713Z,35.16
2018-07-24T18:23:23.748Z,34.45
2018-07-24T18:25:51.768Z,34.29
2018-07-24T18:28:19.815Z,33.77
2018-07-24T18:30:47.848Z,33.27
2018-07-24T18:33:16.041Z,32.92
2018-07-24T18:35:44.133Z,32.81
2018-07-24T18:38:12.140Z,32.84
2018-07-24T18:40:40.240Z,32.90
2018-07-24T18:43:08.237Z,32.71
2018-07-24T18:45:36.360Z,32.50
2018-07-24T18:48:04.632Z,32.46
2018-07-24T18:50:32.664Z,32.31
2018-07-24T18:53:01.434Z,32.28
2018-07-24T18:55:29.516Z,31.80
2018-07-24T18:57:57.533Z,31.58
2018-07-24T19:00:25.512Z,31.24
2018-07-24T19:02:53.728Z,31.03
2018-07-24T19:05:21.755Z,30.68
2018-07-24T19:07:49.712Z,30.57
2018-07-24T19:10:17.936Z,30.44
2018-07-24T19:12:45.996Z,30.29
2018-07-24T19:15:14.206Z,30.12
2018-07-24T19:17:42.242Z,30.13
2018-07-24T19:20:10.372Z,30.06
2018-07-24T19:22:38.470Z,30.19
2018-07-24T19:25:06.440Z,30.17
2018-07-24T19:27:34.500Z,30.11
2018-07-24T19:30:02.557Z,29.90
2018-07-24T19:32:30.601Z,29.64
2018-07-24T19:34:58.686Z,29.45
2018-07-24T19:37:26.632Z,29.52
2018-07-24T19:39:54.716Z,29.52
2018-07-24T19:42:22.755Z,29.50
2018-07-24T19:44:50.934Z,29.67
2018-07-24T19:47:19.174Z,29.68
2018-07-24T19:49:47.341Z,29.80
2018-07-24T19:52:15.392Z,30.02
2018-07-24T19:54:43.660Z,30.05
2018-07-24T19:57:11.860Z,30.03
2018-07-24T19:59:41.020Z,30.00
2018-07-24T20:02:09.213Z,29.99
2018-07-24T20:04:37.727Z,29.91
2018-07-24T20:07:07.082Z,29.94
2018-07-24T20:09:35.167Z,30.13
2018-07-24T20:12:03.261Z,30.16
2018-07-24T20:14:31.420Z,30.13
2018-07-24T20:16:59.588Z,30.20
2018-07-24T20:19:27.700Z,30.16
2018-07-24T20:21:55.836Z,30.14
2018-07-24T20:24:23.876Z,30.16
2018-07-24T20:26:52.215Z,30.17
2018-07-24T20:29:20.435Z,30.09
2018-07-24T20:31:48.533Z,29.93
2018-07-24T20:34:17.715Z,29.99
2018-07-24T20:36:45.994Z,29.93
2018-07-24T20:39:14.168Z,29.91
2018-07-24T20:41:42.966Z,29.94
2018-07-24T20:44:11.153Z,29.96
2018-07-24T20:46:39.252Z,29.95
2018-07-24T20:49:07.317Z,29.86
2018-07-24T20:51:35.548Z,29.75
2018-07-24T20:54:03.773Z,29.64
2018-07-24T20:56:33.218Z,29.65
2018-07-24T20:59:01.469Z,29.59
2018-07-24T21:01:30.632Z,29.55
2018-07-24T21:03:58.759Z,29.54
2018-07-24T21:06:26.940Z,29.46
2018-07-24T21:08:55.088Z,29.40
2018-07-24T21:11:23.320Z,29.26
2018-07-24T21:13:51.354Z,29.15
2018-07-24T21:16:19.492Z,29.12
2018-07-24T21:18:47.812Z,29.09
2018-07-24T21:21:16.076Z,29.07
2018-07-24T21:23:44.209Z,29.01
2018-07-24T21:26:12.552Z,28.93
2018-07-24T21:28:40.739Z,28.91
2018-07-24T21:31:08.908Z,28.87
2018-07-24T21:33:38.992Z,28.77
2018-07-24T21:36:07.170Z,28.72
2018-07-24T21:38:35.537Z,28.69
2018-07-24T21:41:03.652Z,28.56
2018-07-24T21:43:31.913Z,28.48
2018-07-24T21:46:00.211Z,28.44
2018-07-24T21:48:28.248Z,28.34
2018-07-24T21:50:56.465Z,28.25
2018-07-24T21:53:25.470Z,28.23
2018-07-24T21:55:54.597Z,28.12
2018-07-24T21:58:22.712Z,28.02
2018-07-24T22:00:56.173Z,28.03
2018-07-24T22:03:24.420Z,28.02
2018-07-24T22:05:52.670Z,28.01
2018-07-24T22:08:20.809Z,27.93
2018-07-24T22:10:48.954Z,27.93
2018-07-24T22:13:17.072Z,27.90
2018-07-24T22:15:45.265Z,27.89
2018-07-24T22:18:13.414Z,27.82
2018-07-24T22:20:41.549Z,27.89
2018-07-24T22:23:09.690Z,27.86
2018-07-24T22:25:37.785Z,27.80
2018-07-24T22:28:05.936Z,27.77
2018-07-24T22:30:33.969Z,27.66
2018-07-24T22:33:03.028Z,27.61
2018-07-24T22:35:31.062Z,27.41
2018-07-24T22:38:00.124Z,27.25
2018-07-24T22:40:28.104Z,27.35
2018-07-24T22:42:56.117Z,27.32
2018-07-24T22:45:24.131Z,27.16
2018-07-24T22:47:52.180Z,27.07
2018-07-24T22:50:20.313Z,27.01
2018-07-24T22:52:49.348Z,26.98
2018-07-24T22:55:17.428Z,26.85
2018-07-24T22:57:46.688Z,26.79
2018-07-24T23:00:15.850Z,26.73
2018-07-24T23:02:43.877Z,26.75
2018-07-24T23:05:11.869Z,26.69
2018-07-24T23:07:39.940Z,26.60
2018-07-24T23:10:08.001Z,26.52
2018-07-24T23:12:35.988Z,26.52
2018-07-24T23:15:04.652Z,26.44
2018-07-24T23:17:32.742Z,26.39
2018-07-24T23:20:00.820Z,26.24
2018-07-24T23:22:28.874Z,26.21
2018-07-24T23:24:57.036Z,26.26
2018-07-24T23:27:25.027Z,26.20
2018-07-24T23:29:53.112Z,26.03
2018-07-24T23:32:21.144Z,25.94
2018-07-24T23:34:49.144Z,25.85
2018-07-24T23:37:17.159Z,25.74
2018-07-24T23:39:45.284Z,25.71
2018-07-24T23:42:13.429Z,25.67
2018-07-24T23:44:41.444Z,25.61
2018-07-24T23:47:09.470Z,25.69
2018-07-24T23:49:38.504Z,25.77
2018-07-24T23:52:06.683Z,25.79
2018-07-24T23:54:34.696Z,25.96
2018-07-24T23:57:02.702Z,25.92
2018-07-24T23:59:30.692Z,25.99
